createdAt,value
2023-11-29T00:01:53.685Z,1000.6
2023-11-29T00:04:53.600Z,1000.4
2023-11-29T00:07:53.985Z,1000.4
2023-11-29T00:10:53.385Z,1000.4
2023-11-29T00:13:53.398Z,1000.3
2023-11-29T00:16:55.838Z,1000.3
2023-11-29T00:19:54.137Z,1000.2
2023-11-29T00:22:53.948Z,1000.1
2023-11-29T00:25:53.266Z,1000.1
2023-11-29T00:28:53.604Z,1000.0
2023-11-29T00:31:53.614Z,999.9
2023-11-29T00:34:56.216Z,1000.0
2023-11-29T00:37:53.270Z,1000.2
2023-11-29T00:40:53.298Z,1000.1
2023-11-29T00:44:01.004Z,1000.1
2023-11-29T00:46:53.335Z,1000.0
2023-11-29T00:49:53.346Z,999.9
2023-11-29T00:52:53.301Z,999.9
2023-11-29T00:55:58.435Z,999.7
2023-11-29T00:58:53.272Z,999.7
2023-11-29T01:01:53.743Z,999.7
2023-11-29T01:04:53.696Z,999.6
2023-11-29T01:07:53.263Z,999.5
2023-11-29T01:10:56.563Z,999.4
2023-11-29T01:13:53.277Z,999.4
2023-11-29T01:16:53.358Z,999.3
2023-11-29T01:19:54.057Z,999.2
2023-11-29T01:22:58.949Z,999.2
2023-11-29T01:25:53.231Z,999.1
2023-11-29T01:28:54.486Z,999.1
2023-11-29T01:31:53.489Z,999.2
2023-11-29T01:34:53.716Z,999.3
2023-11-29T01:37:53.304Z,999.2
2023-11-29T01:40:53.370Z,999.3
2023-11-29T01:43:54.037Z,999.3
2023-11-29T01:46:54.145Z,999.3
2023-11-29T01:49:54.498Z,999.2
2023-11-29T01:52:53.379Z,999.3
2023-11-29T01:55:53.266Z,999.2
2023-11-29T01:58:53.243Z,999.1
2023-11-29T02:01:53.373Z,999.1
2023-11-29T02:04:53.696Z,999.1
2023-11-29T02:07:53.261Z,999.0
2023-11-29T02:10:53.262Z,999.1
2023-11-29T02:13:53.132Z,999.0
2023-11-29T02:16:53.285Z,998.9
2023-11-29T02:19:53.580Z,998.9
2023-11-29T02:22:53.578Z,998.8
2023-11-29T02:25:53.510Z,998.8
2023-11-29T02:28:53.238Z,998.8
2023-11-29T02:31:53.643Z,998.8
2023-11-29T02:34:53.602Z,998.8
2023-11-29T02:37:53.182Z,998.7
2023-11-29T02:40:53.355Z,998.6
2023-11-29T02:43:53.187Z,998.5
2023-11-29T02:46:53.275Z,998.6
2023-11-29T02:49:53.865Z,998.5
2023-11-29T02:52:53.245Z,998.4
2023-11-29T02:55:53.342Z,998.4
2023-11-29T02:58:53.165Z,998.4
2023-11-29T03:01:53.685Z,998.4
2023-11-29T03:04:53.557Z,998.4
2023-11-29T03:07:53.269Z,998.4
2023-11-29T03:10:53.197Z,998.4
2023-11-29T03:13:53.291Z,998.3
2023-11-29T03:16:53.348Z,998.2
2023-11-29T03:19:53.635Z,998.1
2023-11-29T03:22:54.512Z,998.0
2023-11-29T03:25:53.405Z,998.1
2023-11-29T03:28:53.145Z,998.0
2023-11-29T03:31:53.385Z,998.0
2023-11-29T03:34:53.459Z,997.8
2023-11-29T03:37:53.232Z,997.6
2023-11-29T03:40:53.206Z,997.5
2023-11-29T03:43:53.269Z,997.5
2023-11-29T03:46:54.108Z,997.5
2023-11-29T03:49:53.877Z,997.4
2023-11-29T03:53:02.929Z,997.3
2023-11-29T03:55:53.271Z,997.3
2023-11-29T03:58:54.410Z,997.2
2023-11-29T04:01:57.148Z,997.2
2023-11-29T04:04:53.537Z,997.1
2023-11-29T04:07:53.297Z,997.0
2023-11-29T04:11:02.785Z,997.0
2023-11-29T04:13:53.214Z,997.0
2023-11-29T04:16:54.890Z,997.0
2023-11-29T04:19:53.359Z,997.0
2023-11-29T04:22:53.198Z,997.0
2023-11-29T04:25:53.081Z,996.9
2023-11-29T04:28:53.307Z,996.9
2023-11-29T04:31:54.065Z,996.9
2023-11-29T04:35:07.169Z,996.8
2023-11-29T04:37:55.464Z,996.8
2023-11-29T04:40:53.465Z,996.8
2023-11-29T04:43:54.680Z,996.7
2023-11-29T04:46:53.553Z,996.7
2023-11-29T04:49:53.593Z,996.7
2023-11-29T04:52:53.205Z,996.7
2023-11-29T04:55:53.200Z,996.7
2023-11-29T04:58:53.186Z,996.7
2023-11-29T05:01:53.623Z,996.7
2023-11-29T05:04:55.861Z,996.6
2023-11-29T05:07:53.242Z,996.5
2023-11-29T05:10:53.206Z,996.5
2023-11-29T05:13:53.553Z,996.5
2023-11-29T05:16:59.010Z,996.4
2023-11-29T05:19:56.231Z,996.4
2023-11-29T05:22:53.291Z,996.4
2023-11-29T05:25:53.540Z,996.5
2023-11-29T05:28:53.473Z,996.5
2023-11-29T05:31:53.860Z,996.5
2023-11-29T05:34:53.586Z,996.6
2023-11-29T05:37:53.318Z,996.6
2023-11-29T05:40:53.583Z,996.6
2023-11-29T05:43:53.282Z,996.6
2023-11-29T05:46:54.067Z,996.7
2023-11-29T05:49:53.573Z,996.5
2023-11-29T05:52:54.011Z,996.6
2023-11-29T05:55:53.441Z,996.6
2023-11-29T05:58:53.726Z,996.6
2023-11-29T06:02:00.689Z,996.6
2023-11-29T06:04:54.476Z,996.6
2023-11-29T06:07:53.397Z,996.5
2023-11-29T06:10:53.448Z,996.6
2023-11-29T06:13:53.272Z,996.6
2023-11-29T06:16:55.313Z,996.6
2023-11-29T06:19:56.400Z,996.6
2023-11-29T06:22:53.271Z,996.7
2023-11-29T06:25:53.624Z,996.7
2023-11-29T06:28:53.371Z,996.8
2023-11-29T06:31:53.945Z,996.9
2023-11-29T06:34:53.587Z,996.9
2023-11-29T06:37:59.912Z,996.9
2023-11-29T06:41:01.823Z,997.0
2023-11-29T06:43:53.690Z,997.1
2023-11-29T06:46:53.664Z,997.2
2023-11-29T06:49:53.481Z,997.1
2023-11-29T06:52:53.462Z,997.1
2023-11-29T06:55:53.355Z,997.2
2023-11-29T06:59:00.089Z,997.2
2023-11-29T07:01:54.658Z,997.3
2023-11-29T07:04:56.577Z,997.3
2023-11-29T07:07:53.728Z,997.4
2023-11-29T07:10:53.581Z,997.4
2023-11-29T07:13:53.923Z,997.6
2023-11-29T07:16:53.784Z,997.8
2023-11-29T07:19:53.817Z,997.8
2023-11-29T07:22:53.314Z,997.9
2023-11-29T07:25:56.354Z,997.9
2023-11-29T07:28:53.466Z,998.0
2023-11-29T07:31:53.874Z,998.0
2023-11-29T07:34:53.670Z,998.0
2023-11-29T07:37:54.546Z,998.0
2023-11-29T07:40:54.606Z,998.0
2023-11-29T07:43:53.290Z,998.1
2023-11-29T07:46:54.340Z,998.1
2023-11-29T07:49:53.888Z,998.1
2023-11-29T07:52:53.635Z,998.2
2023-11-29T07:55:53.897Z,998.2
2023-11-29T07:59:01.185Z,998.2
2023-11-29T08:01:54.310Z,998.3
2023-11-29T08:04:53.617Z,998.5
2023-11-29T08:07:53.599Z,998.7
2023-11-29T08:10:53.314Z,998.8
2023-11-29T08:13:53.362Z,998.8
2023-11-29T08:16:53.235Z,998.7
2023-11-29T08:19:53.646Z,998.6
2023-11-29T08:22:53.561Z,998.7
2023-11-29T08:25:53.404Z,998.7
2023-11-29T08:28:53.247Z,998.8
2023-11-29T08:31:53.484Z,998.9
2023-11-29T08:34:53.511Z,998.9
2023-11-29T08:37:53.265Z,999.0
2023-11-29T08:40:53.479Z,999.1
2023-11-29T08:44:03.046Z,999.1
2023-11-29T08:46:53.483Z,999.2
2023-11-29T08:49:55.371Z,999.2
2023-11-29T08:52:55.041Z,999.2
2023-11-29T08:55:53.392Z,999.1
2023-11-29T08:58:55.174Z,999.2
2023-11-29T09:01:54.337Z,999.3
2023-11-29T09:04:53.740Z,999.3
2023-11-29T09:07:53.307Z,999.3
2023-11-29T09:10:53.717Z,999.4
2023-11-29T09:13:53.352Z,999.4
2023-11-29T09:16:55.446Z,999.4
2023-11-29T09:19:53.501Z,999.4
2023-11-29T09:22:53.456Z,999.5
2023-11-29T09:25:54.958Z,999.5
2023-11-29T09:28:53.248Z,999.6
2023-11-29T09:31:53.635Z,999.6
2023-11-29T09:34:53.707Z,999.7
2023-11-29T09:37:53.291Z,999.6
2023-11-29T09:40:53.466Z,999.6
2023-11-29T09:43:53.284Z,999.7
2023-11-29T09:46:53.499Z,999.7
2023-11-29T09:49:54.667Z,999.7
2023-11-29T09:52:53.375Z,999.7
2023-11-29T09:55:53.693Z,999.7
2023-11-29T09:58:53.293Z,999.8
2023-11-29T10:01:53.507Z,999.8
2023-11-29T10:04:55.107Z,999.8
2023-11-29T10:07:55.269Z,999.8
2023-11-29T10:10:53.451Z,999.8
2023-11-29T10:13:53.380Z,999.8
2023-11-29T10:16:55.064Z,999.8
2023-11-29T10:19:53.997Z,999.9
2023-11-29T10:22:57.177Z,999.9
2023-11-29T10:25:53.599Z,999.9
2023-11-29T10:28:55.869Z,999.8
2023-11-29T10:31:53.722Z,999.8
2023-11-29T10:34:53.667Z,999.8
2023-11-29T10:37:55.359Z,999.8
2023-11-29T10:40:53.358Z,999.8
2023-11-29T10:43:54.457Z,999.8
2023-11-29T10:46:53.800Z,999.8
2023-11-29T10:49:53.909Z,999.8
2023-11-29T10:52:53.431Z,999.8
2023-11-29T10:56:03.247Z,999.8
2023-11-29T10:58:53.659Z,999.8
2023-11-29T11:01:54.379Z,999.8
2023-11-29T11:04:54.794Z,999.8
2023-11-29T11:07:53.420Z,999.8
2023-11-29T11:10:53.784Z,999.9
2023-11-29T11:13:53.340Z,999.8
2023-11-29T11:16:54.125Z,999.8
2023-11-29T11:19:53.424Z,999.8
2023-11-29T11:22:53.449Z,999.8
2023-11-29T11:25:53.213Z,999.8
2023-11-29T11:28:53.614Z,999.8
2023-11-29T11:31:53.771Z,999.7
2023-11-29T11:34:53.501Z,999.7
2023-11-29T11:37:53.313Z,999.7
2023-11-29T11:40:54.225Z,999.7
2023-11-29T11:43:54.510Z,999.7
2023-11-29T11:46:53.996Z,999.7
2023-11-29T11:49:55.052Z,999.8
2023-11-29T11:52:53.347Z,999.8
2023-11-29T11:55:54.727Z,999.8
2023-11-29T11:58:53.988Z,999.8
2023-11-29T12:01:54.754Z,999.8
2023-11-29T12:04:53.792Z,999.8
2023-11-29T12:07:53.327Z,999.8
2023-11-29T12:10:54.288Z,999.8
2023-11-29T12:13:53.722Z,999.8
2023-11-29T12:16:54.179Z,999.9
2023-11-29T12:19:54.252Z,999.8
2023-11-29T12:22:53.572Z,999.8
2023-11-29T12:26:04.147Z,999.8
2023-11-29T12:28:53.080Z,999.8
2023-11-29T12:31:53.280Z,999.9
2023-11-29T12:34:55.390Z,999.9
2023-11-29T12:37:53.091Z,999.9
2023-11-29T12:40:53.755Z,999.9
2023-11-29T12:43:53.113Z,999.9
2023-11-29T12:46:53.222Z,1000.0
2023-11-29T12:49:53.991Z,1000.0
2023-11-29T12:52:53.133Z,1000.0
2023-11-29T12:56:01.857Z,1000.0
2023-11-29T12:58:53.164Z,1000.0
2023-11-29T13:01:53.537Z,1000.1
2023-11-29T13:04:53.295Z,1000.1
2023-11-29T13:07:53.032Z,1000.1
2023-11-29T13:10:53.088Z,1000.0
2023-11-29T13:13:53.183Z,1000.0
2023-11-29T13:16:53.490Z,1000.0
2023-11-29T13:19:53.632Z,1000.0
2023-11-29T13:22:53.224Z,1000.0
2023-11-29T13:25:53.729Z,999.9
2023-11-29T13:28:53.889Z,999.9
2023-11-29T13:31:53.228Z,999.9
2023-11-29T13:34:53.591Z,999.9
2023-11-29T13:37:53.216Z,999.9
2023-11-29T13:40:54.780Z,999.9
2023-11-29T13:43:54.305Z,1000.0
2023-11-29T13:46:53.355Z,999.9
2023-11-29T13:49:54.137Z,999.8
2023-11-29T13:53:03.770Z,999.8
2023-11-29T13:55:52.998Z,999.8
2023-11-29T13:58:53.894Z,999.8
2023-11-29T14:01:53.535Z,999.8
2023-11-29T14:05:04.980Z,999.8
2023-11-29T14:07:53.498Z,999.8
2023-11-29T14:10:53.668Z,999.8
2023-11-29T14:13:53.375Z,999.9
2023-11-29T14:16:53.937Z,999.9
2023-11-29T14:19:53.686Z,999.8
2023-11-29T14:22:53.888Z,999.9
2023-11-29T14:25:53.678Z,999.9
2023-11-29T14:29:04.476Z,999.9
2023-11-29T14:31:53.655Z,999.9
2023-11-29T14:34:57.970Z,1000.0
2023-11-29T14:37:53.581Z,1000.0
2023-11-29T14:41:02.947Z,1000.0
2023-11-29T14:43:53.538Z,999.9
2023-11-29T14:46:53.608Z,999.9
2023-11-29T14:50:02.547Z,1000.0
2023-11-29T14:52:53.223Z,999.9
2023-11-29T14:55:53.332Z,1000.0
2023-11-29T14:58:53.344Z,1000.0
2023-11-29T15:01:53.846Z,999.9
2023-11-29T15:04:53.586Z,1000.0
2023-11-29T15:07:53.379Z,999.9
2023-11-29T15:10:54.157Z,999.9
2023-11-29T15:13:58.513Z,999.9
2023-11-29T15:16:53.966Z,1000.0
2023-11-29T15:19:53.834Z,1000.0
2023-11-29T15:22:53.357Z,1000.0
2023-11-29T15:26:03.098Z,1000.0
2023-11-29T15:28:53.319Z,1000.0
2023-11-29T15:31:54.082Z,1000.0
2023-11-29T15:34:54.468Z,1000.0
2023-11-29T15:37:53.908Z,1000.0
2023-11-29T15:41:00.694Z,1000.0
2023-11-29T15:43:53.537Z,1000.0
2023-11-29T15:46:54.254Z,1000.0
2023-11-29T15:49:54.395Z,1000.0
2023-11-29T15:52:53.565Z,1000.1
2023-11-29T15:55:54.501Z,1000.1
2023-11-29T15:58:53.402Z,1000.0
2023-11-29T16:01:54.355Z,1000.0
2023-11-29T16:04:54.083Z,1000.0
2023-11-29T16:07:53.698Z,1000.0
2023-11-29T16:10:53.322Z,1000.0
2023-11-29T16:13:53.588Z,1000.0
2023-11-29T16:16:54.151Z,1000.0
2023-11-29T16:19:53.783Z,1000.0
2023-11-29T16:22:53.381Z,1000.0
2023-11-29T16:25:53.394Z,1000.0
2023-11-29T16:28:53.949Z,1000.0
2023-11-29T16:31:54.342Z,1000.0
2023-11-29T16:34:54.592Z,1000.0
2023-11-29T16:37:53.297Z,1000.0
2023-11-29T16:40:53.493Z,1000.0
2023-11-29T16:43:53.377Z,1000.0
2023-11-29T16:46:57.711Z,1000.1
2023-11-29T16:49:55.541Z,1000.1
2023-11-29T16:52:53.467Z,1000.1
2023-11-29T17:58:53.162Z,1000.3
2023-11-29T18:01:53.772Z,1000.3
2023-11-29T18:04:54.004Z,1000.3
2023-11-29T18:07:53.310Z,1000.3
2023-11-29T18:10:53.446Z,1000.3
2023-11-29T18:13:53.534Z,1000.4
2023-11-29T18:16:54.002Z,1000.4
2023-11-29T18:19:53.856Z,1000.4
2023-11-29T18:22:53.380Z,1000.4
2023-11-29T18:26:03.585Z,1000.3
2023-11-29T18:28:53.415Z,1000.3
2023-11-29T18:31:53.698Z,1000.4
2023-11-29T18:34:57.211Z,1000.3
2023-11-29T18:37:53.372Z,1000.4
2023-11-29T18:40:53.411Z,1000.3
2023-11-29T18:43:53.378Z,1000.4
2023-11-29T18:46:54.190Z,1000.4
2023-11-29T18:49:54.109Z,1000.4
2023-11-29T18:52:54.904Z,1000.4
2023-11-29T18:55:53.440Z,1000.4
2023-11-29T18:58:57.566Z,1000.5
2023-11-29T19:01:54.002Z,1000.5
2023-11-29T19:04:54.508Z,1000.5
2023-11-29T19:07:53.438Z,1000.5
2023-11-29T19:10:53.486Z,1000.5
2023-11-29T19:13:53.381Z,1000.5
2023-11-29T19:16:53.603Z,1000.5
2023-11-29T19:19:53.645Z,1000.4
2023-11-29T19:22:53.441Z,1000.4
2023-11-29T19:25:53.410Z,1000.4
2023-11-29T19:28:53.346Z,1000.4
2023-11-29T19:31:53.563Z,1000.4
2023-11-29T19:34:53.730Z,1000.4
2023-11-29T19:37:53.341Z,1000.4
2023-11-29T19:40:53.395Z,1000.4
2023-11-29T19:43:53.414Z,1000.4
2023-11-29T19:47:02.619Z,1000.5
2023-11-29T19:49:53.780Z,1000.5
2023-11-29T19:53:04.109Z,1000.6
2023-11-29T19:55:53.401Z,1000.6
2023-11-29T19:59:02.649Z,1000.6
2023-11-29T20:01:53.867Z,1000.6
2023-11-29T20:04:54.343Z,1000.6
2023-11-29T20:08:01.057Z,1000.6
2023-11-29T20:10:55.692Z,1000.6
2023-11-29T20:13:53.486Z,1000.7
2023-11-29T20:16:53.518Z,1000.7
2023-11-29T20:19:56.727Z,1000.7
2023-11-29T20:22:56.626Z,1000.7
2023-11-29T20:25:53.307Z,1000.6
2023-11-29T20:28:53.278Z,1000.6
2023-11-29T20:31:55.937Z,1000.6
2023-11-29T20:35:32.742Z,1000.6
2023-11-29T20:41:03.203Z,1000.6
2023-11-29T20:43:53.310Z,1000.6
2023-11-29T20:46:53.483Z,1000.6
2023-11-29T20:49:53.829Z,1000.6
2023-11-29T20:52:59.013Z,1000.6
2023-11-29T20:55:53.324Z,1000.5
2023-11-29T20:58:54.805Z,1000.5
2023-11-29T21:01:53.696Z,1000.5
2023-11-29T21:04:54.379Z,1000.5
2023-11-29T21:07:53.329Z,1000.5
2023-11-29T21:10:53.467Z,1000.4
2023-11-29T21:13:53.386Z,1000.4
2023-11-29T21:16:53.750Z,1000.4
2023-11-29T21:19:54.087Z,1000.4
2023-11-29T21:22:53.458Z,1000.4
2023-11-29T21:25:53.394Z,1000.4
2023-11-29T21:28:53.379Z,1000.4
2023-11-29T21:31:53.565Z,1000.4
2023-11-29T21:34:53.695Z,1000.4
2023-11-29T21:37:53.490Z,1000.4
2023-11-29T21:40:53.374Z,1000.4
2023-11-29T21:43:53.511Z,1000.3
2023-11-29T21:46:53.562Z,1000.3
2023-11-29T21:49:53.748Z,1000.4
2023-11-29T21:52:54.938Z,1000.4
2023-11-29T21:55:53.449Z,1000.3
2023-11-29T21:58:53.429Z,1000.3
2023-11-29T22:01:53.834Z,1000.4
2023-11-29T22:04:53.882Z,1000.4
2023-11-29T22:07:53.248Z,1000.4
2023-11-29T22:10:53.570Z,1000.4
2023-11-29T22:13:53.558Z,1000.4
2023-11-29T22:16:53.703Z,1000.4
2023-11-29T22:19:53.857Z,1000.4
2023-11-29T22:22:53.409Z,1000.4
2023-11-29T22:25:53.773Z,1000.4
2023-11-29T22:28:54.004Z,1000.4
2023-11-29T22:31:53.994Z,1000.4
2023-11-29T22:34:53.773Z,1000.4
2023-11-29T22:37:53.311Z,1000.4
2023-11-29T22:40:53.537Z,1000.4
2023-11-29T22:43:53.294Z,1000.4
2023-11-29T22:46:53.813Z,1000.4
2023-11-29T22:49:54.020Z,1000.4
2023-11-29T22:52:56.891Z,1000.4
2023-11-29T22:55:53.645Z,1000.4
2023-11-29T22:58:53.288Z,1000.4
2023-11-29T23:01:53.703Z,1000.4
2023-11-29T23:04:57.403Z,1000.5
2023-11-29T23:07:53.763Z,1000.5
2023-11-29T23:10:53.536Z,1000.5
2023-11-29T23:13:53.350Z,1000.6
2023-11-29T23:16:53.877Z,1000.6
2023-11-29T23:19:53.841Z,1000.6
2023-11-29T23:22:53.265Z,1000.6
2023-11-29T23:25:54.639Z,1000.5
2023-11-29T23:28:53.358Z,1000.5
2023-11-29T23:31:53.869Z,1000.5
2023-11-29T23:34:53.772Z,1000.4
2023-11-29T23:37:53.981Z,1000.4
2023-11-29T23:40:53.246Z,1000.4
2023-11-29T23:43:53.307Z,1000.4
2023-11-29T23:46:53.402Z,1000.4
2023-11-29T23:49:53.597Z,1000.3
2023-11-29T23:52:53.402Z,1000.3
2023-11-29T23:55:53.443Z,1000.3
2023-11-29T23:58:53.317Z,1000.3
